KHPN Airport (Westchester County) Information

FAA: HPN - ICAO: KHPN

KHPN Airport Location

State New York
County Westchester
City White Plains
KHPN Airport is 3 miles northeast of White Plains, NY.
Latitude 41-04-01.0299N
Longitude 073-42-27.2396W
Elevation 438ft

KHPN Airport METARs

METAR KHPN 060656Z 25004KT 10SM BKN013 23/21 A2980 RMK AO2 SLP083 T02330211
Altimeter 29.80"
Temperature 23.3°C (73.9°F)
Wind 250° at 4KT
Clouds broken at 1,300ft
Visibility 10.0mi
Time observed: 2022-07-06T06:56:00Z

KHPN Airport Details

Status Operational
Activation November 1943
Ownership Public
Usage Public
Chart NEW YORK
ATC on-site Yes
Beacon schedule sunset-sunrise
Beacon color clear green

KHPN Airport Contacts

Owner COUNTY OF WESTCHESTER
Owner address COUNTY OFFICE BLDG, WHITE PLAINS, NY 10604
Owner phone 914-995-4856
Manager GRANT W. SUSSEY
Manager address BLDG 22529 AIRPORT DR, DEXTER, NY 13634-3062
Manager phone 315-786-6002

KHPN Airport (Westchester County) Radio Frequencies

KHPN (Airport) Radio Frequencies

UNICOM 122.95
Common traffic advisory frequency (CTAF) 118.575